NSZ3612 EKCH-LPPR
Flight info
| Callsign | NSZ3612 |
|---|---|
| Flight time | N/A |
| Altitude | 34000 |
| Route | LANGO DCT SISGA/N0435F350 DCT KOVIN DCT NIDUV DCT KIHVI UN872 ERIGA UN741 AZFIC DCT LOTEE DCT ELTEP/N0354F230 T328 ASPOR |
| Aircraft | B738/M-SDE2E3FGHIRWXY/LB1 |
Departure
| Time | 2026-04-25 11:31 |
|---|---|
| Airport | Copenhagen Kastrup Airport (EKCH) |
Arrival
| Time | N/A |
|---|---|
| Airport | Francisco de Sá Carneiro Airport (LPPR) |
| Time | Latitude | Longitude | Altitude | Speed | Heading |
|---|---|---|---|---|---|
| 2026-04-25 10:56 | 55.62856 | 12.64257 | 23 ft | 0 kts | 101° |
| 2026-04-25 11:17 | 55.62857 | 12.64255 | 23 ft | 1 kts | 101° |
| 2026-04-25 11:17 | 55.62859 | 12.64229 | 28 ft | 3 kts | 99° |
| 2026-04-25 11:17 | 55.62863 | 12.64198 | 28 ft | 3 kts | 95° |
| 2026-04-25 11:18 | 55.62861 | 12.64168 | 27 ft | 3 kts | 64° |
| 2026-04-25 11:18 | 55.62851 | 12.64139 | 27 ft | 3 kts | 64° |
| 2026-04-25 11:18 | 55.62843 | 12.64107 | 28 ft | 3 kts | 65° |
| 2026-04-25 11:18 | 55.62834 | 12.64074 | 28 ft | 3 kts | 67° |
| 2026-04-25 11:19 | 55.62827 | 12.64041 | 27 ft | 3 kts | 71° |
| 2026-04-25 11:19 | 55.62823 | 12.64008 | 24 ft | 3 kts | 88° |
| 2026-04-25 11:19 | 55.62825 | 12.63986 | 26 ft | 3 kts | 107° |
| 2026-04-25 11:19 | 55.62830 | 12.63952 | 26 ft | 3 kts | 104° |
| 2026-04-25 11:20 | 55.62835 | 12.63918 | 28 ft | 3 kts | 105° |
| 2026-04-25 11:20 | 55.62837 | 12.63902 | 27 ft | 0 kts | 104° |
| 2026-04-25 11:22 | 55.62836 | 12.63911 | 27 ft | 1 kts | 104° |
| 2026-04-25 11:22 | 55.62834 | 12.63927 | 26 ft | 1 kts | 104° |
| 2026-04-25 11:23 | 55.62829 | 12.63941 | 25 ft | 2 kts | 133° |
| 2026-04-25 11:23 | 55.62820 | 12.63950 | 25 ft | 2 kts | 153° |
| 2026-04-25 11:23 | 55.62806 | 12.63957 | 23 ft | 3 kts | 170° |
| 2026-04-25 11:23 | 55.62785 | 12.63952 | 23 ft | 4 kts | 193° |
| 2026-04-25 11:24 | 55.62761 | 12.63932 | 23 ft | 4 kts | 213° |
| 2026-04-25 11:24 | 55.62735 | 12.63908 | 25 ft | 4 kts | 208° |
| 2026-04-25 11:24 | 55.62710 | 12.63884 | 23 ft | 4 kts | 213° |
| 2026-04-25 11:24 | 55.62686 | 12.63856 | 24 ft | 4 kts | 213° |
| 2026-04-25 11:25 | 55.62656 | 12.63823 | 24 ft | 5 kts | 213° |
| 2026-04-25 11:25 | 55.62624 | 12.63792 | 24 ft | 5 kts | 206° |
| 2026-04-25 11:25 | 55.62590 | 12.63772 | 23 ft | 5 kts | 190° |
| 2026-04-25 11:25 | 55.62553 | 12.63770 | 23 ft | 5 kts | 181° |
| 2026-04-25 11:26 | 55.62517 | 12.63782 | 24 ft | 5 kts | 167° |
| 2026-04-25 11:26 | 55.62482 | 12.63807 | 22 ft | 6 kts | 155° |
| 2026-04-25 11:26 | 55.62447 | 12.63847 | 21 ft | 6 kts | 131° |
| 2026-04-25 11:26 | 55.62421 | 12.63912 | 21 ft | 6 kts | 124° |
| 2026-04-25 11:27 | 55.62397 | 12.63976 | 21 ft | 6 kts | 124° |
| 2026-04-25 11:27 | 55.62373 | 12.64039 | 20 ft | 6 kts | 124° |
| 2026-04-25 11:27 | 55.62345 | 12.64112 | 20 ft | 9 kts | 123° |
| 2026-04-25 11:27 | 55.62318 | 12.64183 | 20 ft | 12 kts | 123° |
| 2026-04-25 11:28 | 55.62239 | 12.64396 | 23 ft | 19 kts | 123° |
| 2026-04-25 11:28 | 55.62153 | 12.64603 | 23 ft | 22 kts | 145° |
| 2026-04-25 11:28 | 55.62058 | 12.64593 | 23 ft | 22 kts | 211° |
| 2026-04-25 11:28 | 55.61946 | 12.64329 | 23 ft | 21 kts | 254° |
| 2026-04-25 11:29 | 55.61883 | 12.64113 | 25 ft | 20 kts | 214° |
| 2026-04-25 11:29 | 55.61746 | 12.64084 | 26 ft | 20 kts | 180° |
| 2026-04-25 11:29 | 55.61654 | 12.64088 | 29 ft | 19 kts | 181° |
| 2026-04-25 11:29 | 55.61598 | 12.64032 | 27 ft | 0 kts | 222° |
| 2026-04-25 11:30 | 55.61596 | 12.64029 | 30 ft | 5 kts | 222° |
| 2026-04-25 11:30 | 55.61382 | 12.63693 | 24 ft | 78 kts | 222° |
| 2026-04-25 11:30 | 55.60804 | 12.62791 | 24 ft | 142 kts | 225° |
| 2026-04-25 11:30 | 55.59963 | 12.61448 | 276 ft | 174 kts | 225° |
| 2026-04-25 11:31 | 55.58995 | 12.60152 | 1049 ft | 171 kts | 223° |
| 2026-04-25 11:31 | 55.58042 | 12.58736 | 1674 ft | 193 kts | 226° |
| 2026-04-25 11:31 | 55.56965 | 12.57042 | 1943 ft | 218 kts | 228° |
| 2026-04-25 11:31 | 55.56131 | 12.54816 | 2424 ft | 219 kts | 256° |
| 2026-04-25 11:32 | 55.55522 | 12.52301 | 3027 ft | 233 kts | 245° |
| 2026-04-25 11:32 | 55.54638 | 12.49759 | 3559 ft | 249 kts | 242° |
| 2026-04-25 11:32 | 55.53683 | 12.47171 | 4413 ft | 254 kts | 242° |
| 2026-04-25 11:32 | 55.52714 | 12.44539 | 5282 ft | 257 kts | 242° |
| 2026-04-25 11:33 | 55.51738 | 12.41850 | 6117 ft | 263 kts | 243° |
| 2026-04-25 11:33 | 55.50754 | 12.39105 | 6958 ft | 266 kts | 243° |
| 2026-04-25 11:33 | 55.49762 | 12.36333 | 7826 ft | 267 kts | 244° |
| 2026-04-25 11:33 | 55.48771 | 12.33551 | 8677 ft | 269 kts | 244° |
| 2026-04-25 11:34 | 55.47771 | 12.30740 | 9471 ft | 271 kts | 244° |
| 2026-04-25 11:34 | 55.46781 | 12.27956 | 10064 ft | 266 kts | 244° |
| 2026-04-25 11:34 | 55.45774 | 12.25100 | 10322 ft | 290 kts | 244° |
| 2026-04-25 11:34 | 55.44671 | 12.21956 | 10538 ft | 313 kts | 244° |
| 2026-04-25 11:35 | 55.43494 | 12.18619 | 11025 ft | 325 kts | 244° |
| 2026-04-25 11:35 | 55.42283 | 12.15211 | 11742 ft | 330 kts | 244° |
| 2026-04-25 11:35 | 55.41063 | 12.11786 | 12531 ft | 332 kts | 244° |
| 2026-04-25 11:35 | 55.39828 | 12.08324 | 13258 ft | 336 kts | 244° |
| 2026-04-25 11:36 | 55.38576 | 12.04811 | 13980 ft | 340 kts | 244° |
| 2026-04-25 11:36 | 55.37316 | 12.01282 | 14693 ft | 341 kts | 244° |
| 2026-04-25 11:36 | 55.36049 | 11.97738 | 15407 ft | 343 kts | 244° |
| 2026-04-25 11:36 | 55.34772 | 11.94167 | 16088 ft | 346 kts | 244° |
| 2026-04-25 11:37 | 55.33488 | 11.90578 | 16790 ft | 348 kts | 244° |
| 2026-04-25 11:37 | 55.32191 | 11.86959 | 17476 ft | 351 kts | 244° |
| 2026-04-25 11:37 | 55.30883 | 11.83314 | 18138 ft | 354 kts | 244° |
| 2026-04-25 11:37 | 55.29562 | 11.79637 | 18717 ft | 357 kts | 244° |
| 2026-04-25 11:38 | 55.28239 | 11.75957 | 19334 ft | 358 kts | 244° |
| 2026-04-25 11:38 | 55.26898 | 11.72240 | 19944 ft | 360 kts | 244° |
| 2026-04-25 11:38 | 55.25553 | 11.68520 | 20527 ft | 362 kts | 244° |
| 2026-04-25 11:38 | 55.24195 | 11.64784 | 21082 ft | 365 kts | 244° |
| 2026-04-25 11:39 | 55.22814 | 11.61035 | 21653 ft | 367 kts | 244° |
| 2026-04-25 11:39 | 55.21421 | 11.57267 | 22216 ft | 370 kts | 244° |
| 2026-04-25 11:39 | 55.20016 | 11.53474 | 22758 ft | 372 kts | 244° |
| 2026-04-25 11:39 | 55.18601 | 11.49656 | 23284 ft | 374 kts | 244° |
| 2026-04-25 11:40 | 55.17195 | 11.45863 | 23763 ft | 376 kts | 244° |
| 2026-04-25 11:40 | 55.15766 | 11.42012 | 24188 ft | 379 kts | 244° |
| 2026-04-25 11:40 | 55.14325 | 11.38134 | 24591 ft | 381 kts | 244° |
| 2026-04-25 11:40 | 55.12873 | 11.34230 | 24999 ft | 384 kts | 244° |
| 2026-04-25 11:41 | 55.11413 | 11.30311 | 25414 ft | 386 kts | 244° |
| 2026-04-25 11:41 | 55.09939 | 11.26361 | 25820 ft | 388 kts | 244° |
| 2026-04-25 11:41 | 55.08455 | 11.22391 | 26192 ft | 391 kts | 244° |
| 2026-04-25 11:41 | 55.06958 | 11.18390 | 26563 ft | 394 kts | 244° |
| 2026-04-25 11:42 | 55.05455 | 11.14381 | 26942 ft | 396 kts | 244° |
| 2026-04-25 11:42 | 55.03942 | 11.10351 | 27306 ft | 398 kts | 244° |
| 2026-04-25 11:42 | 55.02416 | 11.06292 | 27652 ft | 401 kts | 244° |
| 2026-04-25 11:42 | 55.00902 | 11.02272 | 27991 ft | 403 kts | 243° |
| 2026-04-25 11:43 | 54.99359 | 10.98181 | 28340 ft | 406 kts | 244° |
| 2026-04-25 11:43 | 54.97805 | 10.94066 | 28682 ft | 408 kts | 243° |
| 2026-04-25 11:43 | 54.96239 | 10.89929 | 28992 ft | 410 kts | 243° |
| 2026-04-25 11:43 | 54.94654 | 10.85787 | 29303 ft | 414 kts | 242° |
| 2026-04-25 11:44 | 54.92796 | 10.81883 | 29602 ft | 423 kts | 234° |
| 2026-04-25 11:44 | 54.90755 | 10.78145 | 29902 ft | 428 kts | 233° |
| 2026-04-25 11:44 | 54.88658 | 10.74449 | 30152 ft | 431 kts | 232° |
| 2026-04-25 11:44 | 54.86540 | 10.70747 | 30388 ft | 433 kts | 232° |
| 2026-04-25 11:45 | 54.84420 | 10.67026 | 30680 ft | 433 kts | 233° |
| 2026-04-25 11:45 | 54.82311 | 10.63298 | 31022 ft | 432 kts | 233° |
| 2026-04-25 11:45 | 54.80211 | 10.59562 | 31352 ft | 432 kts | 233° |
| 2026-04-25 11:45 | 54.78118 | 10.55821 | 31649 ft | 432 kts | 233° |
| 2026-04-25 11:46 | 54.76027 | 10.52074 | 31930 ft | 433 kts | 233° |
| 2026-04-25 11:46 | 54.73934 | 10.48321 | 32228 ft | 433 kts | 233° |
| 2026-04-25 11:46 | 54.71844 | 10.44575 | 32534 ft | 433 kts | 233° |
| 2026-04-25 11:46 | 54.69749 | 10.40827 | 32819 ft | 433 kts | 233° |
| 2026-04-25 11:47 | 54.67683 | 10.37136 | 33110 ft | 433 kts | 233° |
| 2026-04-25 11:47 | 54.65584 | 10.33394 | 33403 ft | 433 kts | 233° |
| 2026-04-25 11:47 | 54.63490 | 10.29666 | 33716 ft | 432 kts | 233° |
| 2026-04-25 11:47 | 54.61393 | 10.25941 | 34010 ft | 432 kts | 233° |
| 2026-04-25 11:48 | 54.59299 | 10.22225 | 34250 ft | 432 kts | 233° |
| 2026-04-25 11:48 | 54.57202 | 10.18511 | 34484 ft | 432 kts | 233° |
| 2026-04-25 11:48 | 54.55104 | 10.14800 | 34744 ft | 431 kts | 233° |
| 2026-04-25 11:48 | 54.53009 | 10.11101 | 34998 ft | 431 kts | 233° |
| 2026-04-25 11:49 | 54.50917 | 10.07412 | 35217 ft | 431 kts | 233° |
| 2026-04-25 11:49 | 54.48822 | 10.03724 | 35424 ft | 431 kts | 233° |
| 2026-04-25 11:49 | 54.46727 | 10.00040 | 35662 ft | 430 kts | 232° |
| 2026-04-25 11:49 | 54.44633 | 9.96366 | 35886 ft | 430 kts | 232° |
| 2026-04-25 11:50 | 54.42539 | 9.92697 | 36098 ft | 430 kts | 232° |
| 2026-04-25 11:50 | 54.40440 | 9.89025 | 36307 ft | 430 kts | 232° |
| 2026-04-25 11:50 | 54.38341 | 9.85358 | 36517 ft | 430 kts | 232° |
| 2026-04-25 11:50 | 54.36249 | 9.81709 | 36762 ft | 429 kts | 232° |
| 2026-04-25 11:51 | 54.34180 | 9.78107 | 36946 ft | 429 kts | 232° |
| 2026-04-25 11:51 | 54.32079 | 9.74452 | 37115 ft | 430 kts | 232° |
| 2026-04-25 11:51 | 54.29980 | 9.70808 | 37322 ft | 429 kts | 232° |
| 2026-04-25 11:51 | 54.27884 | 9.67175 | 37534 ft | 429 kts | 232° |
| 2026-04-25 11:52 | 54.25787 | 9.63547 | 37707 ft | 429 kts | 232° |
| 2026-04-25 11:52 | 54.23686 | 9.59914 | 37859 ft | 429 kts | 232° |
| 2026-04-25 11:52 | 54.21583 | 9.56285 | 38021 ft | 429 kts | 232° |
| 2026-04-25 11:52 | 54.19479 | 9.52659 | 38032 ft | 431 kts | 232° |
| 2026-04-25 11:53 | 54.15252 | 9.45392 | 38048 ft | 431 kts | 231° |
| 2026-04-25 11:53 | 54.11053 | 9.38200 | 38037 ft | 429 kts | 231° |
| 2026-04-25 11:54 | 54.06843 | 9.31010 | 38046 ft | 428 kts | 231° |
| 2026-04-25 11:55 | 54.00537 | 9.20277 | 38062 ft | 427 kts | 231° |
| 2026-04-25 11:55 | 53.96338 | 9.13157 | 38065 ft | 426 kts | 231° |
| 2026-04-25 11:56 | 53.92129 | 9.06039 | 38084 ft | 427 kts | 231° |
| 2026-04-25 11:56 | 53.87909 | 8.98926 | 38086 ft | 428 kts | 231° |
| 2026-04-25 11:57 | 53.83697 | 8.91849 | 38102 ft | 429 kts | 231° |
| 2026-04-25 11:57 | 53.79438 | 8.84713 | 38100 ft | 431 kts | 231° |
| 2026-04-25 11:58 | 53.75161 | 8.77570 | 38105 ft | 433 kts | 231° |
| 2026-04-25 11:58 | 53.70866 | 8.70419 | 38097 ft | 434 kts | 231° |
| 2026-04-25 11:59 | 53.66551 | 8.63255 | 38105 ft | 435 kts | 231° |
| 2026-04-25 11:59 | 53.62256 | 8.56148 | 38099 ft | 436 kts | 231° |
| 2026-04-25 12:00 | 53.55749 | 8.45421 | 38098 ft | 436 kts | 231° |
| 2026-04-25 12:01 | 53.49234 | 8.34730 | 38105 ft | 436 kts | 231° |
| 2026-04-25 12:01 | 53.44887 | 8.27623 | 38116 ft | 435 kts | 231° |
| 2026-04-25 12:02 | 53.38380 | 8.17024 | 38115 ft | 434 kts | 231° |
| 2026-04-25 12:02 | 53.34068 | 8.10026 | 38116 ft | 433 kts | 231° |
| 2026-04-25 12:03 | 53.29732 | 8.03010 | 38127 ft | 433 kts | 231° |
| 2026-04-25 12:03 | 53.25404 | 7.96029 | 38124 ft | 432 kts | 231° |
| 2026-04-25 12:04 | 53.21070 | 7.89057 | 38126 ft | 432 kts | 230° |
| 2026-04-25 12:04 | 53.16736 | 7.82105 | 38128 ft | 432 kts | 230° |
| 2026-04-25 12:05 | 53.12429 | 7.75218 | 38130 ft | 432 kts | 230° |
| 2026-04-25 12:05 | 53.08090 | 7.68300 | 38128 ft | 432 kts | 230° |
| 2026-04-25 12:06 | 53.03744 | 7.61392 | 38139 ft | 432 kts | 230° |
| 2026-04-25 12:06 | 52.99387 | 7.54486 | 38141 ft | 433 kts | 230° |
| 2026-04-25 12:07 | 52.95028 | 7.47597 | 38139 ft | 433 kts | 230° |
| 2026-04-25 12:07 | 52.90649 | 7.40696 | 38155 ft | 434 kts | 229° |
| 2026-04-25 12:08 | 52.86268 | 7.33814 | 38144 ft | 434 kts | 229° |
| 2026-04-25 12:08 | 52.81900 | 7.26972 | 38157 ft | 434 kts | 229° |
| 2026-04-25 12:09 | 52.77495 | 7.20092 | 38153 ft | 434 kts | 229° |
| 2026-04-25 12:09 | 52.73133 | 7.13300 | 38152 ft | 433 kts | 229° |
| 2026-04-25 12:10 | 52.68744 | 7.06484 | 38150 ft | 433 kts | 229° |
| 2026-04-25 12:10 | 52.64356 | 6.99689 | 38148 ft | 432 kts | 229° |
| 2026-04-25 12:11 | 52.59966 | 6.92912 | 38146 ft | 432 kts | 229° |
| 2026-04-25 12:11 | 52.55588 | 6.86173 | 38144 ft | 431 kts | 228° |
| 2026-04-25 12:12 | 52.51946 | 6.80580 | 38145 ft | 431 kts | 228° |
| 2026-04-25 12:12 | 52.46855 | 6.72785 | 38147 ft | 430 kts | 228° |
| 2026-04-25 12:13 | 52.42474 | 6.66099 | 38149 ft | 430 kts | 228° |
| 2026-04-25 12:13 | 52.38093 | 6.59430 | 38149 ft | 429 kts | 228° |
| 2026-04-25 12:14 | 52.33706 | 6.52771 | 38153 ft | 429 kts | 227° |
| 2026-04-25 12:14 | 52.29347 | 6.46174 | 38159 ft | 429 kts | 227° |
| 2026-04-25 12:15 | 52.24958 | 6.39551 | 38156 ft | 430 kts | 227° |
| 2026-04-25 12:15 | 52.20552 | 6.32919 | 38159 ft | 430 kts | 227° |
| 2026-04-25 12:16 | 52.16890 | 6.27422 | 38171 ft | 431 kts | 227° |
| 2026-04-25 12:16 | 52.12474 | 6.20812 | 38170 ft | 431 kts | 227° |
| 2026-04-25 12:17 | 52.08056 | 6.14215 | 38174 ft | 431 kts | 227° |
| 2026-04-25 12:17 | 52.03629 | 6.07625 | 38180 ft | 432 kts | 227° |
| 2026-04-25 12:18 | 51.99198 | 6.01047 | 38181 ft | 432 kts | 227° |
| 2026-04-25 12:18 | 51.94762 | 5.94480 | 38182 ft | 432 kts | 226° |
| 2026-04-25 12:19 | 51.88117 | 5.84677 | 38181 ft | 432 kts | 226° |
| 2026-04-25 12:20 | 51.83637 | 5.78091 | 38183 ft | 432 kts | 226° |
| 2026-04-25 12:20 | 51.79207 | 5.71596 | 38182 ft | 433 kts | 226° |
| 2026-04-25 12:21 | 51.74748 | 5.65078 | 38186 ft | 432 kts | 226° |
| 2026-04-25 12:21 | 51.70284 | 5.58570 | 38182 ft | 432 kts | 226° |
| 2026-04-25 12:22 | 51.65824 | 5.52086 | 38183 ft | 432 kts | 226° |
| 2026-04-25 12:22 | 51.61359 | 5.45614 | 38182 ft | 431 kts | 225° |
| 2026-04-25 12:23 | 51.56900 | 5.39167 | 38207 ft | 430 kts | 225° |
| 2026-04-25 12:23 | 51.52471 | 5.32781 | 38207 ft | 430 kts | 225° |
| 2026-04-25 12:24 | 51.48017 | 5.26376 | 38214 ft | 430 kts | 225° |
| 2026-04-25 12:24 | 51.43562 | 5.19987 | 38206 ft | 429 kts | 225° |
| 2026-04-25 12:25 | 51.39103 | 5.13610 | 38206 ft | 429 kts | 225° |
| 2026-04-25 12:25 | 51.34640 | 5.07245 | 38199 ft | 429 kts | 225° |
| 2026-04-25 12:26 | 51.30203 | 5.00933 | 38198 ft | 429 kts | 225° |
| 2026-04-25 12:26 | 51.25746 | 4.94611 | 38198 ft | 429 kts | 225° |
| 2026-04-25 12:27 | 51.22027 | 4.89348 | 38198 ft | 429 kts | 225° |
| 2026-04-25 12:28 | 51.19300 | 4.85498 | 38203 ft | 429 kts | 225° |
| 2026-04-25 12:28 | 51.14814 | 4.79175 | 38210 ft | 429 kts | 224° |
| 2026-04-25 12:29 | 51.10334 | 4.72878 | 38206 ft | 429 kts | 224° |
| 2026-04-25 12:29 | 51.06411 | 4.67378 | 38206 ft | 429 kts | 224° |
| 2026-04-25 12:30 | 51.01924 | 4.61104 | 38210 ft | 429 kts | 224° |
| 2026-04-25 12:30 | 50.97465 | 4.54885 | 38213 ft | 429 kts | 224° |
| 2026-04-25 12:31 | 50.92980 | 4.48646 | 38212 ft | 429 kts | 224° |
| 2026-04-25 12:31 | 50.88484 | 4.42408 | 38213 ft | 429 kts | 224° |
| 2026-04-25 12:32 | 50.83989 | 4.36188 | 38205 ft | 428 kts | 224° |
| 2026-04-25 12:32 | 50.79529 | 4.30033 | 38202 ft | 428 kts | 224° |
| 2026-04-25 12:33 | 50.75040 | 4.23852 | 38206 ft | 427 kts | 224° |
| 2026-04-25 12:33 | 50.70554 | 4.17690 | 38203 ft | 427 kts | 224° |
| 2026-04-25 12:34 | 50.66074 | 4.11547 | 38184 ft | 426 kts | 224° |
| 2026-04-25 12:34 | 50.61536 | 4.05534 | 38194 ft | 428 kts | 218° |
| 2026-04-25 12:35 | 50.56354 | 4.00844 | 38187 ft | 430 kts | 211° |
| 2026-04-25 12:35 | 50.51107 | 3.96447 | 38191 ft | 429 kts | 211° |
| 2026-04-25 12:36 | 50.45850 | 3.92006 | 38198 ft | 428 kts | 211° |
| 2026-04-25 12:36 | 50.40609 | 3.87541 | 38194 ft | 428 kts | 211° |
| 2026-04-25 12:37 | 50.35384 | 3.83082 | 38192 ft | 427 kts | 211° |
| 2026-04-25 12:37 | 50.30161 | 3.78634 | 38188 ft | 427 kts | 211° |
| 2026-04-25 12:38 | 50.24934 | 3.74195 | 38187 ft | 427 kts | 211° |
| 2026-04-25 12:38 | 50.19735 | 3.69792 | 38182 ft | 427 kts | 211° |
| 2026-04-25 12:39 | 50.14516 | 3.65382 | 38182 ft | 426 kts | 211° |
| 2026-04-25 12:39 | 50.09302 | 3.60988 | 38185 ft | 426 kts | 211° |
| 2026-04-25 12:40 | 50.04083 | 3.56601 | 38178 ft | 426 kts | 211° |
| 2026-04-25 12:40 | 49.98857 | 3.52218 | 38181 ft | 427 kts | 211° |
| 2026-04-25 12:41 | 49.93625 | 3.47842 | 38171 ft | 427 kts | 211° |
| 2026-04-25 12:41 | 49.88393 | 3.43476 | 38180 ft | 427 kts | 210° |
| 2026-04-25 12:42 | 49.83143 | 3.39106 | 38175 ft | 428 kts | 210° |
| 2026-04-25 12:42 | 49.77934 | 3.34781 | 38178 ft | 428 kts | 210° |
| 2026-04-25 12:43 | 49.72683 | 3.30430 | 38173 ft | 428 kts | 210° |
| 2026-04-25 12:43 | 49.64801 | 3.23919 | 38164 ft | 428 kts | 210° |
| 2026-04-25 12:44 | 49.59555 | 3.19596 | 38170 ft | 427 kts | 210° |
| 2026-04-25 12:45 | 49.51707 | 3.13080 | 38162 ft | 426 kts | 215° |
| 2026-04-25 12:45 | 49.45757 | 3.03288 | 38174 ft | 418 kts | 240° |
| 2026-04-25 12:46 | 49.42909 | 2.95479 | 38171 ft | 419 kts | 242° |
| 2026-04-25 12:46 | 49.40072 | 2.87724 | 38171 ft | 419 kts | 241° |
| 2026-04-25 12:47 | 49.37176 | 2.79949 | 38169 ft | 419 kts | 240° |
| 2026-04-25 12:47 | 49.34271 | 2.72202 | 38174 ft | 419 kts | 241° |
| 2026-04-25 12:48 | 49.31475 | 2.64347 | 38169 ft | 419 kts | 242° |
| 2026-04-25 12:48 | 49.28895 | 2.56947 | 38169 ft | 420 kts | 242° |
| 2026-04-25 12:49 | 49.26142 | 2.49115 | 38168 ft | 420 kts | 242° |
| 2026-04-25 12:49 | 49.23354 | 2.41234 | 38160 ft | 420 kts | 242° |
| 2026-04-25 12:50 | 49.20557 | 2.33363 | 38161 ft | 421 kts | 241° |
| 2026-04-25 12:50 | 49.17722 | 2.25547 | 38156 ft | 421 kts | 240° |
| 2026-04-25 12:51 | 49.14855 | 2.17813 | 38161 ft | 420 kts | 240° |
| 2026-04-25 12:51 | 49.11982 | 2.10045 | 38149 ft | 420 kts | 240° |
| 2026-04-25 12:52 | 49.09216 | 2.02490 | 38147 ft | 419 kts | 243° |
| 2026-04-25 12:52 | 49.06749 | 1.94447 | 38153 ft | 418 kts | 245° |
| 2026-04-25 12:53 | 49.04368 | 1.86352 | 38155 ft | 418 kts | 245° |
| 2026-04-25 12:53 | 49.01972 | 1.78305 | 38156 ft | 417 kts | 245° |
| 2026-04-25 12:54 | 48.99548 | 1.70263 | 38160 ft | 417 kts | 245° |
| 2026-04-25 12:54 | 48.97132 | 1.62302 | 38163 ft | 417 kts | 244° |
| 2026-04-25 12:55 | 48.95500 | 1.56941 | 38154 ft | 417 kts | 244° |
| 2026-04-25 12:55 | 48.92251 | 1.46301 | 38160 ft | 416 kts | 244° |
| 2026-04-25 12:56 | 48.89805 | 1.38319 | 38154 ft | 416 kts | 244° |
| 2026-04-25 12:56 | 48.87355 | 1.30347 | 38161 ft | 416 kts | 244° |
| 2026-04-25 12:57 | 48.84896 | 1.22373 | 38161 ft | 416 kts | 244° |
| 2026-04-25 12:57 | 48.82437 | 1.14423 | 38156 ft | 416 kts | 244° |
| 2026-04-25 12:58 | 48.79971 | 1.06471 | 38160 ft | 416 kts | 244° |
| 2026-04-25 12:58 | 48.77518 | 0.98579 | 38162 ft | 416 kts | 244° |
| 2026-04-25 12:59 | 48.75040 | 0.90646 | 38163 ft | 416 kts | 244° |
| 2026-04-25 12:59 | 48.72209 | 0.82998 | 38170 ft | 416 kts | 238° |
| 2026-04-25 13:00 | 48.70164 | 0.78020 | 38155 ft | 416 kts | 237° |
| 2026-04-25 13:00 | 48.66084 | 0.68107 | 38159 ft | 417 kts | 238° |
| 2026-04-25 13:01 | 48.63034 | 0.60638 | 38162 ft | 417 kts | 238° |
| 2026-04-25 13:01 | 48.59993 | 0.53178 | 38162 ft | 417 kts | 238° |
| 2026-04-25 13:02 | 48.56945 | 0.45716 | 38161 ft | 417 kts | 238° |
| 2026-04-25 13:02 | 48.53889 | 0.38260 | 38154 ft | 418 kts | 238° |
| 2026-04-25 13:03 | 48.50846 | 0.30851 | 38159 ft | 418 kts | 238° |
| 2026-04-25 13:03 | 48.47774 | 0.23395 | 38159 ft | 418 kts | 237° |
| 2026-04-25 13:04 | 48.45224 | 0.17222 | 38153 ft | 418 kts | 237° |
| 2026-04-25 13:04 | 48.42147 | 0.09787 | 38152 ft | 417 kts | 237° |
| 2026-04-25 13:05 | 48.39074 | 0.02378 | 38162 ft | 417 kts | 237° |
| 2026-04-25 13:05 | 48.35978 | -0.04995 | 38152 ft | 417 kts | 235° |
| 2026-04-25 13:06 | 48.32539 | -0.12009 | 38155 ft | 417 kts | 232° |
| 2026-04-25 13:06 | 48.29040 | -0.18894 | 38150 ft | 417 kts | 233° |
| 2026-04-25 13:07 | 48.25559 | -0.25857 | 38151 ft | 417 kts | 233° |
| 2026-04-25 13:07 | 48.22032 | -0.32798 | 38148 ft | 417 kts | 232° |
| 2026-04-25 13:08 | 48.18496 | -0.39692 | 38144 ft | 417 kts | 232° |
| 2026-04-25 13:08 | 48.14954 | -0.46593 | 38142 ft | 417 kts | 232° |
| 2026-04-25 13:09 | 48.11416 | -0.53485 | 38132 ft | 418 kts | 232° |
| 2026-04-25 13:09 | 48.07866 | -0.60384 | 38131 ft | 418 kts | 232° |
| 2026-04-25 13:10 | 48.04311 | -0.67277 | 38130 ft | 419 kts | 232° |
| 2026-04-25 13:10 | 48.00768 | -0.74132 | 38135 ft | 419 kts | 232° |
| 2026-04-25 13:11 | 47.97195 | -0.81024 | 38128 ft | 420 kts | 232° |
| 2026-04-25 13:11 | 47.93612 | -0.87918 | 38131 ft | 420 kts | 232° |
| 2026-04-25 13:12 | 47.90020 | -0.94813 | 38134 ft | 421 kts | 232° |
| 2026-04-25 13:12 | 47.87027 | -1.00546 | 38130 ft | 421 kts | 232° |
| 2026-04-25 13:13 | 47.82816 | -1.08590 | 38139 ft | 422 kts | 232° |
| 2026-04-25 13:13 | 47.79204 | -1.15472 | 38144 ft | 422 kts | 232° |
| 2026-04-25 13:14 | 47.75586 | -1.22348 | 38142 ft | 422 kts | 232° |
| 2026-04-25 13:14 | 47.71984 | -1.29179 | 38136 ft | 422 kts | 232° |
| 2026-04-25 13:15 | 47.68362 | -1.36030 | 38139 ft | 422 kts | 232° |
| 2026-04-25 13:15 | 47.64727 | -1.42893 | 38133 ft | 422 kts | 232° |
| 2026-04-25 13:16 | 47.61087 | -1.49744 | 38132 ft | 422 kts | 232° |
| 2026-04-25 13:16 | 47.57312 | -1.56402 | 38135 ft | 422 kts | 228° |
| 2026-04-25 13:17 | 47.53342 | -1.62826 | 38132 ft | 422 kts | 227° |
| 2026-04-25 13:17 | 47.49405 | -1.69205 | 38126 ft | 423 kts | 228° |
| 2026-04-25 13:18 | 47.45460 | -1.75654 | 38128 ft | 423 kts | 228° |
| 2026-04-25 13:18 | 47.41509 | -1.82119 | 38141 ft | 423 kts | 228° |
| 2026-04-25 13:19 | 47.37557 | -1.88567 | 38130 ft | 424 kts | 228° |
| 2026-04-25 13:19 | 47.34052 | -1.93638 | 38132 ft | 425 kts | 218° |
| 2026-04-25 13:20 | 47.28209 | -1.99013 | 38123 ft | 427 kts | 211° |
| 2026-04-25 13:20 | 47.23092 | -2.03478 | 38132 ft | 427 kts | 212° |
| 2026-04-25 13:21 | 47.17992 | -2.07984 | 38133 ft | 428 kts | 212° |
| 2026-04-25 13:21 | 47.12886 | -2.12524 | 38125 ft | 429 kts | 212° |
| 2026-04-25 13:22 | 47.07775 | -2.17065 | 38122 ft | 430 kts | 212° |
| 2026-04-25 13:23 | 47.00091 | -2.23871 | 38137 ft | 430 kts | 212° |
| 2026-04-25 13:23 | 46.94993 | -2.28377 | 38132 ft | 431 kts | 212° |
| 2026-04-25 13:24 | 46.89848 | -2.32910 | 38141 ft | 431 kts | 213° |
| 2026-04-25 13:24 | 46.85346 | -2.38592 | 38145 ft | 427 kts | 231° |
| 2026-04-25 13:25 | 46.82116 | -2.45850 | 38152 ft | 426 kts | 241° |
| 2026-04-25 13:25 | 46.79225 | -2.53338 | 38149 ft | 426 kts | 241° |
| 2026-04-25 13:26 | 46.76292 | -2.60864 | 38145 ft | 427 kts | 241° |
| 2026-04-25 13:26 | 46.73327 | -2.68372 | 38146 ft | 427 kts | 241° |
| 2026-04-25 13:27 | 46.70346 | -2.75876 | 38147 ft | 427 kts | 240° |
| 2026-04-25 13:27 | 46.67359 | -2.83373 | 38148 ft | 427 kts | 240° |
| 2026-04-25 13:28 | 46.64389 | -2.90812 | 38147 ft | 427 kts | 240° |
| 2026-04-25 13:28 | 46.61400 | -2.98283 | 38153 ft | 427 kts | 240° |
| 2026-04-25 13:29 | 46.58401 | -3.05755 | 38154 ft | 427 kts | 240° |
| 2026-04-25 13:29 | 46.54909 | -3.12720 | 38156 ft | 429 kts | 228° |
| 2026-04-25 13:30 | 46.48649 | -3.22017 | 38149 ft | 429 kts | 227° |
| 2026-04-25 13:31 | 46.42403 | -3.31288 | 38157 ft | 428 kts | 227° |
| 2026-04-25 13:31 | 46.38257 | -3.37485 | 38155 ft | 428 kts | 227° |
| 2026-04-25 13:32 | 46.34140 | -3.43638 | 38160 ft | 428 kts | 227° |
| 2026-04-25 13:32 | 46.29998 | -3.49815 | 38153 ft | 427 kts | 227° |
| 2026-04-25 13:33 | 46.25853 | -3.55982 | 38161 ft | 427 kts | 227° |
| 2026-04-25 13:33 | 46.21698 | -3.62149 | 38170 ft | 427 kts | 227° |
| 2026-04-25 13:34 | 46.17545 | -3.68298 | 38161 ft | 427 kts | 227° |
| 2026-04-25 13:34 | 46.13392 | -3.74433 | 38174 ft | 427 kts | 227° |
| 2026-04-25 13:35 | 46.09263 | -3.80518 | 38165 ft | 427 kts | 227° |
| 2026-04-25 13:35 | 46.05096 | -3.86646 | 38160 ft | 427 kts | 227° |
| 2026-04-25 13:36 | 46.00936 | -3.92749 | 38160 ft | 427 kts | 227° |
| 2026-04-25 13:36 | 45.96768 | -3.98849 | 38165 ft | 427 kts | 227° |
| 2026-04-25 13:37 | 45.92624 | -4.04902 | 38167 ft | 427 kts | 227° |
| 2026-04-25 13:37 | 45.88452 | -4.10981 | 38172 ft | 427 kts | 227° |
| 2026-04-25 13:38 | 45.84278 | -4.17049 | 38180 ft | 427 kts | 227° |
| 2026-04-25 13:38 | 45.80096 | -4.23115 | 38175 ft | 427 kts | 226° |
| 2026-04-25 13:39 | 45.75914 | -4.29167 | 38174 ft | 427 kts | 226° |
| 2026-04-25 13:39 | 45.71728 | -4.35213 | 38182 ft | 427 kts | 226° |
| 2026-04-25 13:40 | 45.67537 | -4.41250 | 38181 ft | 427 kts | 226° |
| 2026-04-25 13:40 | 45.63343 | -4.47279 | 38184 ft | 427 kts | 226° |
| 2026-04-25 13:41 | 45.59175 | -4.53256 | 38182 ft | 427 kts | 226° |
| 2026-04-25 13:41 | 45.54976 | -4.59266 | 38189 ft | 427 kts | 226° |
| 2026-04-25 13:42 | 45.50775 | -4.65263 | 38183 ft | 427 kts | 226° |
| 2026-04-25 13:42 | 45.46573 | -4.71251 | 38193 ft | 427 kts | 226° |
| 2026-04-25 13:43 | 45.42363 | -4.77235 | 38193 ft | 427 kts | 226° |
| 2026-04-25 13:43 | 45.38158 | -4.83199 | 38193 ft | 427 kts | 226° |
| 2026-04-25 13:44 | 45.33978 | -4.89114 | 38196 ft | 427 kts | 226° |
| 2026-04-25 13:44 | 45.29769 | -4.95058 | 38195 ft | 427 kts | 226° |
| 2026-04-25 13:45 | 45.25547 | -5.01006 | 38197 ft | 427 kts | 226° |
| 2026-04-25 13:45 | 45.21322 | -5.06946 | 38201 ft | 427 kts | 226° |
| 2026-04-25 13:46 | 45.17100 | -5.12868 | 38201 ft | 427 kts | 226° |
| 2026-04-25 13:46 | 45.12871 | -5.18787 | 38202 ft | 427 kts | 226° |
| 2026-04-25 13:47 | 45.08639 | -5.24698 | 38202 ft | 427 kts | 226° |
| 2026-04-25 13:47 | 45.04433 | -5.30559 | 38208 ft | 427 kts | 226° |
| 2026-04-25 13:48 | 45.00186 | -5.36465 | 38203 ft | 428 kts | 226° |
| 2026-04-25 13:48 | 44.95942 | -5.42353 | 38207 ft | 428 kts | 226° |
| 2026-04-25 13:49 | 44.91684 | -5.48249 | 38209 ft | 428 kts | 225° |
| 2026-04-25 13:49 | 44.87447 | -5.54102 | 38209 ft | 429 kts | 225° |
| 2026-04-25 13:50 | 44.83178 | -5.59989 | 38210 ft | 429 kts | 225° |
| 2026-04-25 13:50 | 44.78912 | -5.65859 | 38212 ft | 429 kts | 225° |
| 2026-04-25 13:51 | 44.74631 | -5.71737 | 38213 ft | 430 kts | 225° |
| 2026-04-25 13:51 | 44.70348 | -5.77610 | 38213 ft | 430 kts | 225° |
| 2026-04-25 13:52 | 44.66776 | -5.82490 | 38208 ft | 430 kts | 225° |
| 2026-04-25 13:52 | 44.61258 | -5.88463 | 38209 ft | 432 kts | 216° |
| 2026-04-25 13:53 | 44.56311 | -5.93268 | 38208 ft | 432 kts | 216° |
| 2026-04-25 13:53 | 44.52204 | -5.97270 | 38212 ft | 432 kts | 216° |
| 2026-04-25 13:54 | 44.47261 | -6.02122 | 38214 ft | 432 kts | 216° |
| 2026-04-25 13:54 | 44.42369 | -6.06938 | 38209 ft | 432 kts | 216° |
| 2026-04-25 13:55 | 44.37444 | -6.11782 | 38213 ft | 433 kts | 216° |
| 2026-04-25 13:55 | 44.32516 | -6.16620 | 38213 ft | 433 kts | 216° |
| 2026-04-25 13:56 | 44.27584 | -6.21450 | 38211 ft | 433 kts | 216° |
| 2026-04-25 13:56 | 44.22645 | -6.26277 | 38212 ft | 433 kts | 216° |
| 2026-04-25 13:57 | 44.17708 | -6.31091 | 38209 ft | 433 kts | 216° |
| 2026-04-25 13:57 | 44.12763 | -6.35903 | 38210 ft | 433 kts | 216° |
| 2026-04-25 13:58 | 44.07855 | -6.40669 | 38205 ft | 433 kts | 216° |
| 2026-04-25 13:58 | 44.02900 | -6.45471 | 38207 ft | 434 kts | 216° |
| 2026-04-25 13:59 | 43.97939 | -6.50269 | 38210 ft | 434 kts | 216° |
| 2026-04-25 13:59 | 43.92982 | -6.55052 | 38207 ft | 434 kts | 216° |
| 2026-04-25 14:00 | 43.88857 | -6.59026 | 38204 ft | 435 kts | 216° |
| 2026-04-25 14:00 | 43.83045 | -6.64613 | 38205 ft | 435 kts | 216° |
| 2026-04-25 14:01 | 43.78092 | -6.69363 | 38208 ft | 435 kts | 216° |
| 2026-04-25 14:01 | 43.73110 | -6.74131 | 38208 ft | 436 kts | 216° |
| 2026-04-25 14:02 | 43.68117 | -6.78900 | 38202 ft | 436 kts | 216° |
| 2026-04-25 14:02 | 43.63120 | -6.83664 | 38204 ft | 436 kts | 216° |
| 2026-04-25 14:03 | 43.58116 | -6.88425 | 38203 ft | 437 kts | 216° |
| 2026-04-25 14:03 | 43.53111 | -6.93176 | 38193 ft | 437 kts | 216° |
| 2026-04-25 14:04 | 43.48124 | -6.97900 | 38189 ft | 438 kts | 216° |
| 2026-04-25 14:04 | 43.43101 | -7.02651 | 38184 ft | 438 kts | 216° |
| 2026-04-25 14:05 | 43.38070 | -7.07396 | 38180 ft | 438 kts | 216° |
| 2026-04-25 14:05 | 43.33037 | -7.12136 | 38175 ft | 438 kts | 216° |
| 2026-04-25 14:06 | 43.28035 | -7.16833 | 38163 ft | 438 kts | 216° |
| 2026-04-25 14:06 | 43.23008 | -7.21549 | 38158 ft | 438 kts | 216° |
| 2026-04-25 14:07 | 43.17976 | -7.26259 | 38153 ft | 437 kts | 216° |
| 2026-04-25 14:07 | 43.12950 | -7.30954 | 38147 ft | 437 kts | 216° |
| 2026-04-25 14:08 | 43.07921 | -7.35642 | 38135 ft | 437 kts | 215° |
| 2026-04-25 14:08 | 43.02973 | -7.40243 | 38103 ft | 416 kts | 216° |
| 2026-04-25 14:08 | 43.00614 | -7.42431 | 38112 ft | 402 kts | 216° |
| 2026-04-25 14:09 | 42.98349 | -7.44531 | 38119 ft | 397 kts | 216° |
| 2026-04-25 14:09 | 42.93743 | -7.48802 | 38137 ft | 405 kts | 216° |
| 2026-04-25 14:10 | 42.89019 | -7.53177 | 38129 ft | 414 kts | 215° |
| 2026-04-25 14:10 | 42.84220 | -7.57609 | 38125 ft | 418 kts | 215° |
| 2026-04-25 14:11 | 42.79444 | -7.62009 | 38098 ft | 410 kts | 215° |
| 2026-04-25 14:11 | 42.74753 | -7.66326 | 38109 ft | 406 kts | 215° |
| 2026-04-25 14:12 | 42.70069 | -7.70633 | 38103 ft | 406 kts | 215° |
| 2026-04-25 14:12 | 42.65374 | -7.74938 | 38094 ft | 407 kts | 215° |
| 2026-04-25 14:13 | 42.60483 | -7.78823 | 38094 ft | 410 kts | 202° |
| 2026-04-25 14:13 | 42.54995 | -7.81017 | 38092 ft | 412 kts | 195° |
| 2026-04-25 14:14 | 42.49446 | -7.82998 | 38097 ft | 413 kts | 195° |
| 2026-04-25 14:14 | 42.43931 | -7.85007 | 38095 ft | 414 kts | 196° |
| 2026-04-25 14:15 | 42.38370 | -7.87070 | 38097 ft | 414 kts | 196° |
| 2026-04-25 14:15 | 42.32812 | -7.89140 | 38090 ft | 415 kts | 196° |
| 2026-04-25 14:16 | 42.27247 | -7.91211 | 38086 ft | 415 kts | 196° |
| 2026-04-25 14:16 | 42.21672 | -7.93281 | 38089 ft | 416 kts | 196° |
| 2026-04-25 14:17 | 42.16087 | -7.95352 | 38081 ft | 416 kts | 196° |
| 2026-04-25 14:17 | 42.10502 | -7.97417 | 38077 ft | 416 kts | 196° |
| 2026-04-25 14:18 | 42.04914 | -7.99480 | 38096 ft | 416 kts | 196° |
| 2026-04-25 14:18 | 41.99337 | -8.01537 | 38077 ft | 415 kts | 196° |
| 2026-04-25 14:19 | 41.93767 | -8.03589 | 38082 ft | 415 kts | 196° |
| 2026-04-25 14:19 | 41.88241 | -8.05622 | 38092 ft | 414 kts | 196° |
| 2026-04-25 14:20 | 41.82679 | -8.07660 | 38085 ft | 414 kts | 196° |
| 2026-04-25 14:20 | 41.80863 | -8.08456 | 38056 ft | 413 kts | 207° |
| 2026-04-25 14:20 | 41.77525 | -8.10941 | 38102 ft | 410 kts | 212° |
| 2026-04-25 14:21 | 41.72578 | -8.14803 | 38069 ft | 411 kts | 211° |
| 2026-04-25 14:21 | 41.67409 | -8.18076 | 38087 ft | 413 kts | 200° |
| 2026-04-25 14:22 | 41.61937 | -8.20440 | 38074 ft | 413 kts | 199° |
| 2026-04-25 14:22 | 41.56503 | -8.22804 | 38076 ft | 414 kts | 199° |
| 2026-04-25 14:23 | 41.51043 | -8.25279 | 38069 ft | 414 kts | 200° |
| 2026-04-25 14:23 | 41.45575 | -8.27779 | 38073 ft | 415 kts | 200° |
| 2026-04-25 14:24 | 41.40104 | -8.30266 | 38064 ft | 416 kts | 200° |
| 2026-04-25 14:24 | 41.35551 | -8.32327 | 38073 ft | 416 kts | 200° |
| 2026-04-25 14:25 | 41.29638 | -8.35002 | 38065 ft | 416 kts | 200° |
| 2026-04-25 14:26 | 41.24149 | -8.37485 | 38075 ft | 417 kts | 200° |
| 2026-04-25 14:26 | 41.18656 | -8.39968 | 38073 ft | 417 kts | 200° |
| 2026-04-25 14:27 | 41.13156 | -8.42452 | 38071 ft | 417 kts | 200° |
| 2026-04-25 14:27 | 41.07662 | -8.44927 | 38067 ft | 417 kts | 200° |
| 2026-04-25 14:28 | 41.02433 | -8.48081 | 38075 ft | 410 kts | 224° |
| 2026-04-25 14:28 | 41.00573 | -8.50882 | 38078 ft | 404 kts | 240° |
| 2026-04-25 14:28 | 40.99386 | -8.54204 | 38072 ft | 398 kts | 257° |
| 2026-04-25 14:29 | 40.98314 | -8.61312 | 38079 ft | 397 kts | 262° |
| 2026-04-25 14:29 | 40.97352 | -8.68517 | 38069 ft | 397 kts | 262° |
| 2026-04-25 14:30 | 40.96403 | -8.75720 | 38072 ft | 397 kts | 262° |
| 2026-04-25 14:30 | 40.94985 | -8.86532 | 38084 ft | 397 kts | 262° |
| 2026-04-25 14:31 | 40.94051 | -8.93689 | 38085 ft | 397 kts | 262° |
| 2026-04-25 14:31 | 40.93117 | -9.00881 | 38089 ft | 397 kts | 262° |
| 2026-04-25 14:32 | 40.92186 | -9.08074 | 38095 ft | 396 kts | 262° |
| 2026-04-25 14:32 | 40.91263 | -9.15250 | 38104 ft | 395 kts | 262° |
| 2026-04-25 14:33 | 40.90345 | -9.22403 | 38101 ft | 394 kts | 262° |
| 2026-04-25 14:33 | 40.89437 | -9.29554 | 38103 ft | 393 kts | 262° |
| 2026-04-25 14:34 | 40.88535 | -9.36678 | 38106 ft | 392 kts | 262° |
| 2026-04-25 14:34 | 40.87646 | -9.43777 | 38110 ft | 391 kts | 262° |
| 2026-04-25 14:35 | 40.86777 | -9.50818 | 38113 ft | 390 kts | 262° |
| 2026-04-25 14:35 | 40.85915 | -9.57883 | 38114 ft | 390 kts | 262° |
| 2026-04-25 14:36 | 40.85071 | -9.64955 | 38120 ft | 390 kts | 262° |
| 2026-04-25 14:36 | 40.84226 | -9.72074 | 38130 ft | 395 kts | 262° |
| 2026-04-25 14:37 | 40.83386 | -9.79274 | 38135 ft | 399 kts | 262° |
| 2026-04-25 14:37 | 40.82541 | -9.86569 | 38133 ft | 403 kts | 262° |
| 2026-04-25 14:38 | 40.81703 | -9.93820 | 38121 ft | 395 kts | 262° |
| 2026-04-25 14:38 | 40.80894 | -10.00901 | 38123 ft | 386 kts | 262° |
| 2026-04-25 14:39 | 40.80105 | -10.07818 | 38128 ft | 382 kts | 262° |
| 2026-04-25 14:39 | 40.79314 | -10.14781 | 38153 ft | 385 kts | 262° |
| 2026-04-25 14:40 | 40.78523 | -10.21779 | 38145 ft | 386 kts | 262° |
| 2026-04-25 14:40 | 40.77734 | -10.28800 | 38147 ft | 388 kts | 262° |
| 2026-04-25 14:41 | 40.76943 | -10.35875 | 38148 ft | 390 kts | 262° |
| 2026-04-25 14:41 | 40.76163 | -10.42923 | 38137 ft | 389 kts | 262° |
| 2026-04-25 14:42 | 40.75646 | -10.47623 | 38138 ft | 385 kts | 262° |
| 2026-04-25 14:42 | 40.74625 | -10.56878 | 38142 ft | 381 kts | 262° |
| 2026-04-25 14:43 | 40.73999 | -10.62620 | 38150 ft | 379 kts | 262° |
| 2026-04-25 14:43 | 40.73255 | -10.69511 | 38154 ft | 379 kts | 262° |
| 2026-04-25 14:44 | 40.72522 | -10.76390 | 38161 ft | 379 kts | 262° |
| 2026-04-25 14:44 | 40.71791 | -10.83305 | 38164 ft | 382 kts | 262° |
| 2026-04-25 14:45 | 40.71060 | -10.90285 | 38172 ft | 387 kts | 262° |
| 2026-04-25 14:45 | 40.70325 | -10.97320 | 38166 ft | 392 kts | 262° |
| 2026-04-25 14:46 | 40.69586 | -11.04454 | 38154 ft | 392 kts | 262° |
| 2026-04-25 14:46 | 40.68863 | -11.11498 | 38150 ft | 383 kts | 262° |
| 2026-04-25 14:47 | 40.68272 | -11.17312 | 38165 ft | 382 kts | 262° |
| 2026-04-25 14:47 | 40.67461 | -11.25373 | 38173 ft | 382 kts | 262° |
| 2026-04-25 14:48 | 40.66770 | -11.32324 | 38173 ft | 383 kts | 262° |
| 2026-04-25 14:48 | 40.66084 | -11.39275 | 38172 ft | 384 kts | 262° |
| 2026-04-25 14:49 | 40.65405 | -11.46259 | 38175 ft | 385 kts | 262° |
| 2026-04-25 14:49 | 40.64731 | -11.53269 | 38174 ft | 386 kts | 262° |
| 2026-04-25 14:50 | 40.64070 | -11.60252 | 38178 ft | 387 kts | 262° |
| 2026-04-25 14:50 | 40.63408 | -11.67316 | 38181 ft | 389 kts | 262° |
| 2026-04-25 14:51 | 40.62753 | -11.74390 | 38184 ft | 390 kts | 262° |
| 2026-04-25 14:51 | 40.62098 | -11.81502 | 38199 ft | 395 kts | 262° |
| 2026-04-25 14:52 | 40.61431 | -11.88775 | 38197 ft | 405 kts | 262° |
| 2026-04-25 14:52 | 40.60865 | -11.94946 | 38195 ft | 412 kts | 262° |
| 2026-04-25 14:53 | 40.60060 | -12.03760 | 38195 ft | 422 kts | 262° |
| 2026-04-25 14:53 | 40.59362 | -12.11458 | 38183 ft | 425 kts | 262° |
| 2026-04-25 14:54 | 40.58664 | -12.19195 | 38187 ft | 426 kts | 262° |
| 2026-04-25 14:54 | 40.57965 | -12.26951 | 38183 ft | 426 kts | 262° |
| 2026-04-25 14:55 | 40.57273 | -12.34678 | 38187 ft | 424 kts | 262° |
| 2026-04-25 14:55 | 40.56587 | -12.42364 | 38185 ft | 422 kts | 262° |
| 2026-04-25 14:56 | 40.55908 | -12.50017 | 38191 ft | 420 kts | 262° |
| 2026-04-25 14:56 | 40.55242 | -12.57578 | 38189 ft | 418 kts | 262° |
| 2026-04-25 14:57 | 40.54571 | -12.65159 | 38194 ft | 416 kts | 262° |
| 2026-04-25 14:57 | 40.53899 | -12.72711 | 38192 ft | 415 kts | 262° |
| 2026-04-25 14:58 | 40.53223 | -12.80247 | 38197 ft | 414 kts | 262° |
| 2026-04-25 14:58 | 40.52550 | -12.87733 | 38197 ft | 415 kts | 262° |
| 2026-04-25 14:59 | 40.51869 | -12.95272 | 38203 ft | 416 kts | 262° |
| 2026-04-25 14:59 | 40.51177 | -13.02841 | 38201 ft | 418 kts | 262° |
| 2026-04-25 15:00 | 40.50469 | -13.10446 | 38200 ft | 419 kts | 262° |
| 2026-04-25 15:00 | 40.49751 | -13.18066 | 38202 ft | 421 kts | 262° |
| 2026-04-25 15:01 | 40.49022 | -13.25704 | 38201 ft | 422 kts | 262° |
| 2026-04-25 15:01 | 40.48282 | -13.33361 | 38198 ft | 423 kts | 262° |
| 2026-04-25 15:02 | 40.47542 | -13.40984 | 38201 ft | 423 kts | 262° |
| 2026-04-25 15:02 | 40.46800 | -13.48654 | 38200 ft | 423 kts | 262° |
| 2026-04-25 15:03 | 40.46061 | -13.56321 | 38203 ft | 422 kts | 262° |
| 2026-04-25 15:03 | 40.45326 | -13.63973 | 38203 ft | 421 kts | 262° |
| 2026-04-25 15:04 | 40.44602 | -13.71554 | 38200 ft | 420 kts | 262° |
| 2026-04-25 15:04 | 40.43879 | -13.79154 | 38203 ft | 419 kts | 262° |
| 2026-04-25 15:05 | 40.43161 | -13.86732 | 38204 ft | 417 kts | 262° |
| 2026-04-25 15:06 | 40.42093 | -13.98052 | 38203 ft | 416 kts | 262° |
| 2026-04-25 15:06 | 40.41387 | -14.05584 | 38202 ft | 415 kts | 262° |
| 2026-04-25 15:07 | 40.40684 | -14.13107 | 38206 ft | 415 kts | 262° |
| 2026-04-25 15:07 | 40.39982 | -14.20588 | 38212 ft | 416 kts | 262° |
| 2026-04-25 15:08 | 40.39265 | -14.28126 | 38213 ft | 417 kts | 262° |
| 2026-04-25 15:08 | 40.38537 | -14.35675 | 38209 ft | 418 kts | 262° |
| 2026-04-25 15:09 | 40.37796 | -14.43242 | 38211 ft | 418 kts | 262° |
| 2026-04-25 15:09 | 40.36667 | -14.54606 | 38210 ft | 419 kts | 262° |
| 2026-04-25 15:10 | 40.35906 | -14.62151 | 38209 ft | 420 kts | 262° |
| 2026-04-25 15:11 | 40.34740 | -14.73532 | 38209 ft | 419 kts | 262° |
| 2026-04-25 15:11 | 40.33954 | -14.81099 | 38204 ft | 418 kts | 262° |
| 2026-04-25 15:12 | 40.32762 | -14.92417 | 38209 ft | 416 kts | 262° |
| 2026-04-25 15:12 | 40.32228 | -14.97436 | 38205 ft | 415 kts | 262° |
| 2026-04-25 15:13 | 40.30775 | -15.11117 | 38206 ft | 412 kts | 262° |
| 2026-04-25 15:14 | 40.29990 | -15.18535 | 38207 ft | 410 kts | 262° |
| 2026-04-25 15:14 | 40.29209 | -15.25935 | 38205 ft | 409 kts | 262° |
| 2026-04-25 15:15 | 40.28440 | -15.33258 | 38207 ft | 408 kts | 262° |
| 2026-04-25 15:15 | 40.27672 | -15.40604 | 38215 ft | 406 kts | 262° |
| 2026-04-25 15:16 | 40.26910 | -15.47936 | 38212 ft | 406 kts | 262° |
| 2026-04-25 15:16 | 40.25783 | -15.58913 | 38203 ft | 405 kts | 262° |
| 2026-04-25 15:17 | 40.24673 | -15.69886 | 38206 ft | 405 kts | 262° |
| 2026-04-25 15:18 | 40.23943 | -15.77202 | 38201 ft | 405 kts | 262° |
| 2026-04-25 15:18 | 40.22862 | -15.88141 | 38203 ft | 406 kts | 262° |
| 2026-04-25 15:19 | 40.22383 | -15.93055 | 38204 ft | 406 kts | 262° |
| 2026-04-25 15:19 | 40.21439 | -16.02815 | 38204 ft | 406 kts | 262° |
| 2026-04-25 15:20 | 40.20737 | -16.10160 | 38204 ft | 407 kts | 262° |
| 2026-04-25 15:20 | 40.20047 | -16.17454 | 38205 ft | 407 kts | 262° |
| 2026-04-25 15:21 | 40.19357 | -16.24816 | 38204 ft | 407 kts | 262° |
| 2026-04-25 15:21 | 40.18676 | -16.32161 | 38204 ft | 406 kts | 262° |
| 2026-04-25 15:22 | 40.18001 | -16.39494 | 38206 ft | 406 kts | 262° |
| 2026-04-25 15:22 | 40.17338 | -16.46788 | 38201 ft | 406 kts | 262° |
| 2026-04-25 15:23 | 40.16678 | -16.54118 | 38208 ft | 405 kts | 262° |
| 2026-04-25 15:23 | 40.16024 | -16.61440 | 38205 ft | 405 kts | 262° |
| 2026-04-25 15:24 | 40.15376 | -16.68752 | 38198 ft | 404 kts | 262° |
| 2026-04-25 15:24 | 40.14950 | -16.73588 | 38206 ft | 404 kts | 262° |
| 2026-04-25 15:25 | 40.14104 | -16.83314 | 38198 ft | 404 kts | 262° |
| 2026-04-25 15:25 | 40.13476 | -16.90603 | 38196 ft | 403 kts | 262° |
| 2026-04-25 15:26 | 40.12855 | -16.97885 | 38198 ft | 403 kts | 262° |
| 2026-04-25 15:26 | 40.12244 | -17.05165 | 38196 ft | 403 kts | 262° |
| 2026-04-25 15:27 | 40.11640 | -17.12451 | 38198 ft | 403 kts | 262° |
| 2026-04-25 15:28 | 40.10749 | -17.23328 | 38195 ft | 403 kts | 262° |
| 2026-04-25 15:28 | 40.10164 | -17.30611 | 38197 ft | 403 kts | 262° |
| 2026-04-25 15:29 | 40.09584 | -17.37903 | 38199 ft | 403 kts | 262° |
| 2026-04-25 15:29 | 40.09012 | -17.45191 | 38194 ft | 403 kts | 262° |
| 2026-04-25 15:30 | 40.08445 | -17.52485 | 38194 ft | 403 kts | 262° |
| 2026-04-25 15:30 | 40.07886 | -17.59771 | 38192 ft | 403 kts | 262° |
| 2026-04-25 15:31 | 40.07425 | -17.65832 | 38194 ft | 404 kts | 262° |
| 2026-04-25 15:31 | 40.06877 | -17.73133 | 38191 ft | 403 kts | 262° |
| 2026-04-25 15:32 | 40.06336 | -17.80389 | 38187 ft | 403 kts | 262° |
| 2026-04-25 15:32 | 40.05797 | -17.87685 | 38186 ft | 403 kts | 262° |
| 2026-04-25 15:33 | 40.04998 | -17.98616 | 38190 ft | 403 kts | 262° |
| 2026-04-25 15:33 | 40.04472 | -18.05907 | 38188 ft | 403 kts | 262° |
| 2026-04-25 15:34 | 40.03950 | -18.13192 | 38186 ft | 403 kts | 262° |
| 2026-04-25 15:34 | 40.03521 | -18.19244 | 38185 ft | 402 kts | 262° |
| 2026-04-25 15:35 | 40.02673 | -18.31331 | 38182 ft | 402 kts | 262° |
| 2026-04-25 15:36 | 40.01920 | -18.42217 | 38183 ft | 401 kts | 262° |
| 2026-04-25 15:36 | 40.01425 | -18.49460 | 38176 ft | 401 kts | 262° |
| 2026-04-25 15:37 | 40.00933 | -18.56711 | 38176 ft | 400 kts | 262° |
| 2026-04-25 15:37 | 40.00446 | -18.63943 | 38179 ft | 400 kts | 262° |
| 2026-04-25 15:38 | 39.99966 | -18.71134 | 38175 ft | 400 kts | 262° |
| 2026-04-25 15:38 | 39.99489 | -18.78361 | 38171 ft | 400 kts | 262° |
| 2026-04-25 15:39 | 39.99014 | -18.85587 | 38170 ft | 400 kts | 262° |
| 2026-04-25 15:39 | 39.98539 | -18.92819 | 38171 ft | 400 kts | 262° |
| 2026-04-25 15:40 | 39.98145 | -18.98823 | 38169 ft | 400 kts | 262° |
| 2026-04-25 15:40 | 39.97590 | -19.07248 | 38168 ft | 400 kts | 262° |
| 2026-04-25 15:41 | 39.97111 | -19.14487 | 38166 ft | 400 kts | 262° |
| 2026-04-25 15:41 | 39.96632 | -19.21734 | 38162 ft | 400 kts | 262° |
| 2026-04-25 15:42 | 39.96157 | -19.28919 | 38167 ft | 400 kts | 262° |
| 2026-04-25 15:42 | 39.95676 | -19.36191 | 38163 ft | 400 kts | 262° |
| 2026-04-25 15:43 | 39.95201 | -19.43379 | 38163 ft | 400 kts | 262° |
| 2026-04-25 15:43 | 39.94722 | -19.50612 | 38156 ft | 400 kts | 262° |
| 2026-04-25 15:44 | 39.94246 | -19.57834 | 38159 ft | 400 kts | 262° |
| 2026-04-25 15:44 | 39.93771 | -19.65058 | 38157 ft | 399 kts | 262° |
| 2026-04-25 15:45 | 39.93295 | -19.72272 | 38153 ft | 399 kts | 262° |
| 2026-04-25 15:45 | 39.92901 | -19.78267 | 38153 ft | 399 kts | 262° |
| 2026-04-25 15:46 | 39.92353 | -19.86637 | 38152 ft | 399 kts | 262° |
| 2026-04-25 15:46 | 39.91883 | -19.93833 | 38148 ft | 398 kts | 262° |
| 2026-04-25 15:47 | 39.91414 | -20.01027 | 38151 ft | 398 kts | 262° |
| 2026-04-25 15:47 | 39.90946 | -20.08221 | 38147 ft | 398 kts | 262° |
| 2026-04-25 15:48 | 39.90481 | -20.15417 | 38146 ft | 398 kts | 262° |
| 2026-04-25 15:48 | 39.90015 | -20.22619 | 38143 ft | 399 kts | 262° |
| 2026-04-25 15:49 | 39.89549 | -20.29821 | 38143 ft | 399 kts | 262° |
| 2026-04-25 15:49 | 39.89084 | -20.36983 | 38158 ft | 400 kts | 262° |
| 2026-04-25 15:50 | 39.88619 | -20.44203 | 38135 ft | 400 kts | 262° |
| 2026-04-25 15:50 | 39.88155 | -20.51415 | 38138 ft | 400 kts | 262° |
| 2026-04-25 15:51 | 39.87767 | -20.57465 | 38142 ft | 400 kts | 262° |
| 2026-04-25 15:51 | 39.87230 | -20.65855 | 38136 ft | 399 kts | 262° |
| 2026-04-25 15:52 | 39.86769 | -20.73059 | 38140 ft | 399 kts | 262° |
| 2026-04-25 15:52 | 39.86310 | -20.80273 | 38130 ft | 400 kts | 262° |
| 2026-04-25 15:53 | 39.85853 | -20.87439 | 38147 ft | 400 kts | 262° |
| 2026-04-25 15:53 | 39.85395 | -20.94661 | 38123 ft | 401 kts | 262° |
| 2026-04-25 15:54 | 39.84937 | -21.01885 | 38127 ft | 400 kts | 262° |